KFNL/FNL METAR and TAF weather

Enter ICAO airport designator
Station Type Date Time Source
KFNL METAR 2020/07/11 22:56 UTC NOAA

KFNL 112256Z 18005KT 10SM CLR 34/06 A3019 RMK AO2 SLP149 T03440056


Station Type Date Time Source
KFNL Decoded METAR 2020/07/11 22:56 UTC NOAA

Fort Collins/Loveland, Fort Collins-Loveland Municipal Airport, CO, United States (KFNL) 40-27N 105-01W
Jul 11, 2020 - 06:56 PM EDT / 2020.07.11 2256 UTC
Wind: from the S (180 degrees) at 6 MPH (5 KT):0
Visibility: 10 mile(s):0
Sky conditions: clear
Temperature: 93.9 F (34.4 C)
Dew Point: 42.1 F (5.6 C)
Relative Humidity: 16%
Pressure (altimeter): 30.19 in. Hg (1022 hPa)
ob: KFNL 112256Z 18005KT 10SM CLR 34/06 A3019 RMK AO2 SLP149 T03440056
cycle: 23

Station Type Date Time Source
KFNL TAF UTC NOAA

Error!

Example: see airport list